Time;durP1;ratioP1;P1;durP2;ratioP2;P2;SDS_P1;SDS_P2;PMS_P1;PMS_P2;Temp;Humidity;BMP_temperature;BMP_pressure;BME280_temperature;BME280_humidity;BME280_pressure;Samples;Min_cycle;Max_cycle;Signal;HPM_P1;HPM_P2
2023/09/12 00:00:52;;;;;;;25.42;15.05;;;20.80;80.30;;;;;;5058295;28;20393;-76
2023/09/12 00:03:22;;;;;;;26.77;15.85;;;20.80;80.50;;;;;;5056124;28;20871;-77
2023/09/12 00:05:56;;;;;;;28.42;16.17;;;20.80;81.60;;;;;;5055285;28;20406;-77
2023/09/12 00:08:22;;;;;;;26.85;16.35;;;20.80;81.50;;;;;;5057039;28;20432;-77
2023/09/12 00:10:58;;;;;;;30.85;17.02;;;20.70;82.40;;;;;;5057904;28;20798;-77
2023/09/12 00:13:23;;;;;;;26.77;16.45;;;20.70;82.80;;;;;;5059306;28;20385;-77
2023/09/12 00:15:49;;;;;;;32.13;17.48;;;20.70;83.00;;;;;;5058616;28;20389;-78
2023/09/12 00:18:14;;;;;;;31.47;16.90;;;20.70;83.60;;;;;;5062059;28;20416;-76
2023/09/12 00:20:40;;;;;;;27.35;16.63;;;20.70;83.90;;;;;;5060131;28;20402;-77
2023/09/12 00:23:06;;;;;;;24.60;16.40;;;20.70;84.40;;;;;;5037412;28;20425;-78
2023/09/12 00:25:31;;;;;;;29.20;17.13;;;20.80;83.50;;;;;;5038073;28;20409;-77
2023/09/12 00:27:57;;;;;;;30.27;17.83;;;20.80;83.00;;;;;;5054589;28;20393;-76
2023/09/12 00:30:22;;;;;;;32.00;18.90;;;20.80;83.40;;;;;;5054118;28;20443;-77
2023/09/12 00:32:48;;;;;;;35.47;20.38;;;20.80;84.20;;;;;;5053861;28;20561;-77
2023/09/12 00:35:13;;;;;;;32.60;20.10;;;20.80;84.00;;;;;;5053834;28;20408;-76
2023/09/12 00:37:39;;;;;;;33.50;20.73;;;20.80;84.20;;;;;;5034267;28;20576;-76
2023/09/12 00:40:05;;;;;;;30.90;19.23;;;20.80;84.30;;;;;;5038359;28;20403;-77
2023/09/12 00:42:31;;;;;;;26.98;17.20;;;20.90;84.20;;;;;;5058164;28;20397;-76
2023/09/12 00:44:56;;;;;;;26.02;15.88;;;20.90;83.80;;;;;;5055088;28;20496;-77
2023/09/12 00:47:23;;;;;;;25.97;15.33;;;20.80;83.10;;;;;;5065055;28;20373;-78
2023/09/12 00:49:50;;;;;;;23.15;14.38;;;20.80;82.90;;;;;;5059255;28;20476;-78
2023/09/12 00:52:15;;;;;;;21.35;13.13;;;20.70;83.60;;;;;;5058752;28;20381;-77
2023/09/12 00:54:41;;;;;;;24.33;14.10;;;20.80;81.60;;;;;;5057823;28;20503;-77
2023/09/12 00:57:07;;;;;;;21.93;14.10;;;20.80;81.30;;;;;;5058680;28;20381;-77
2023/09/12 00:59:33;;;;;;;21.95;14.07;;;20.70;82.60;;;;;;5057842;28;20385;-77
2023/09/12 01:02:01;;;;;;;23.50;14.43;;;20.70;83.80;;;;;;5057919;28;20929;-78
2023/09/12 01:04:27;;;;;;;21.63;13.95;;;20.70;83.70;;;;;;5041033;28;20504;-77
2023/09/12 01:06:53;;;;;;;25.05;15.43;;;20.70;84.20;;;;;;5062109;28;20389;-77
2023/09/12 01:09:18;;;;;;;22.90;14.65;;;20.70;84.30;;;;;;5061792;28;20405;-77
2023/09/12 01:11:44;;;;;;;22.85;14.05;;;20.60;85.40;;;;;;5060159;28;20393;-76
2023/09/12 01:14:10;;;;;;;23.13;14.63;;;20.60;84.40;;;;;;5056179;28;20381;-76
2023/09/12 01:16:35;;;;;;;26.20;16.10;;;20.80;81.30;;;;;;5055892;28;20386;-76
2023/09/12 01:19:01;;;;;;;30.65;18.42;;;20.80;83.00;;;;;;5055626;28;20724;-77
2023/09/12 01:21:38;;;;;;;33.95;19.83;;;20.80;83.70;;;;;;5037350;28;20393;-76
2023/09/12 01:24:36;;;;;;;30.05;20.20;;;20.80;85.10;;;;;;5038010;28;20411;-76
2023/09/12 01:27:22;;;;;;;37.53;23.10;;;20.80;85.90;;;;;;5046864;28;20389;-77
2023/09/12 01:29:53;;;;;;;42.37;24.67;;;20.80;86.00;;;;;;5056645;28;20393;-78
2023/09/12 01:32:20;;;;;;;38.63;23.83;;;20.70;87.00;;;;;;5057895;28;20746;-77
2023/09/12 01:34:46;;;;;;;44.65;24.15;;;20.70;86.20;;;;;;5058313;28;20385;-77
2023/09/12 01:37:11;;;;;;;40.90;24.80;;;20.80;85.20;;;;;;5046824;28;20454;-77
2023/09/12 01:39:37;;;;;;;44.20;23.90;;;20.80;85.70;;;;;;5066319;28;20382;-77
2023/09/12 01:42:03;;;;;;;40.20;23.20;;;20.80;84.70;;;;;;5056751;28;20450;-77
2023/09/12 01:44:31;;;;;;;37.93;24.20;;;20.80;82.20;;;;;;5056909;28;20461;-77
2023/09/12 01:47:03;;;;;;;40.72;22.80;;;20.80;81.00;;;;;;5038688;28;20390;-78
2023/09/12 01:49:29;;;;;;;41.88;23.00;;;20.90;81.00;;;;;;5056387;28;20460;-76
2023/09/12 01:51:56;;;;;;;41.67;23.40;;;20.90;80.70;;;;;;5057136;28;20381;-77
2023/09/12 01:57:43;;;;;;;44.43;25.07;;;20.90;82.30;;;;;;5055325;28;20376;-76
2023/09/12 02:00:09;;;;;;;42.27;24.63;;;20.80;83.60;;;;;;5039970;28;20871;-77
2023/09/12 02:02:34;;;;;;;38.00;24.50;;;20.70;86.40;;;;;;5068187;28;20382;-77
2023/09/12 02:05:07;;;;;;;43.05;24.90;;;20.70;87.70;;;;;;5068617;28;20464;-77
2023/09/12 02:07:36;;;;;;;41.23;24.17;;;20.70;88.60;;;;;;5047038;28;20798;-76
2023/09/12 02:10:01;;;;;;;45.53;25.05;;;20.60;88.80;;;;;;5070100;28;20440;-76
2023/09/12 02:12:27;;;;;;;42.55;26.20;;;20.50;90.10;;;;;;5070275;28;20362;-77
2023/09/12 02:14:52;;;;;;;45.90;26.07;;;20.50;92.30;;;;;;5069778;28;20393;-77
2023/09/12 02:17:18;;;;;;;43.38;26.08;;;20.50;91.50;;;;;;5050518;28;20445;-76
2023/09/12 02:19:47;;;;;;;41.47;26.30;;;20.50;91.80;;;;;;5067854;28;20393;-76
2023/09/12 02:22:13;;;;;;;44.53;25.80;;;20.50;91.30;;;;;;5069755;28;20377;-77
2023/09/12 02:24:38;;;;;;;41.97;25.87;;;20.40;93.00;;;;;;5067288;28;20509;-77
2023/09/12 02:27:04;;;;;;;36.87;25.47;;;20.40;93.80;;;;;;5066451;28;20534;-77
2023/09/12 02:29:32;;;;;;;37.97;24.48;;;20.50;92.30;;;;;;5060653;28;20385;-76
2023/09/12 02:31:58;;;;;;;43.42;24.80;;;20.50;92.70;;;;;;5055947;28;20409;-76
2023/09/12 02:34:23;;;;;;;38.80;24.50;;;20.40;94.10;;;;;;5037100;28;20393;-76
2023/09/12 02:36:49;;;;;;;39.63;25.48;;;20.40;93.20;;;;;;5044563;28;20393;-78
2023/09/12 02:39:15;;;;;;;41.67;24.73;;;20.40;96.70;;;;;;5065535;28;20449;-76
2023/09/12 02:41:40;;;;;;;38.40;23.52;;;20.40;98.60;;;;;;5072748;28;20385;-77
2023/09/12 02:44:06;;;;;;;40.60;23.80;;;20.60;93.30;;;;;;5045014;28;20901;-77
2023/09/12 02:46:34;;;;;;;40.97;25.13;;;20.60;91.80;;;;;;5039482;28;20518;-76
2023/09/12 02:49:00;;;;;;;37.03;23.20;;;20.70;90.40;;;;;;5063523;28;20377;-77
2023/09/12 02:51:26;;;;;;;40.35;23.85;;;20.80;86.00;;;;;;5063348;28;20551;-77
2023/09/12 02:53:51;;;;;;;33.97;22.95;;;20.80;85.30;;;;;;5061256;28;20511;-77
2023/09/12 02:56:17;;;;;;;36.70;22.80;;;20.90;85.90;;;;;;5060879;28;20390;-77
2023/09/12 02:58:46;;;;;;;35.13;24.10;;;20.80;84.60;;;;;;5063429;28;20392;-77
2023/09/12 03:01:16;;;;;;;38.83;23.48;;;20.70;86.70;;;;;;5045743;28;20386;-77
2023/09/12 03:03:41;;;;;;;42.58;25.17;;;20.70;88.40;;;;;;5063720;28;20428;-77
2023/09/12 03:06:07;;;;;;;40.70;24.02;;;20.70;87.60;;;;;;5054408;28;20850;-77
2023/09/12 03:08:33;;;;;;;36.90;23.90;;;20.70;85.90;;;;;;5034182;28;20439;-76
2023/09/12 03:10:58;;;;;;;39.10;23.95;;;20.70;84.90;;;;;;5051687;28;20866;-77
2023/09/12 03:13:28;;;;;;;43.05;23.60;;;20.70;87.50;;;;;;5051698;28;20665;-78
2023/09/12 03:15:53;;;;;;;36.90;25.38;;;20.60;86.50;;;;;;5052121;28;20431;-76
2023/09/12 03:18:19;;;;;;;43.90;25.00;;;20.40;88.60;;;;;;5053828;28;20390;-76
2023/09/12 03:20:44;;;;;;;37.60;24.83;;;20.30;93.00;;;;;;5055192;28;20435;-75
2023/09/12 03:23:10;;;;;;;41.90;24.33;;;20.20;95.50;;;;;;5055929;28;20881;-77
2023/09/12 03:25:37;;;;;;;37.58;24.70;;;20.00;98.50;;;;;;5055742;28;21032;-76
2023/09/12 03:28:04;;;;;;;38.10;26.27;;;19.90;99.90;;;;;;5055118;28;20421;-76
2023/09/12 03:30:32;;;;;;;46.28;28.60;;;19.80;99.90;;;;;;5052622;28;20389;-77
2023/09/12 03:32:58;;;;;;;44.92;29.02;;;19.70;99.90;;;;;;5033339;28;20445;-76
2023/09/12 03:35:24;;;;;;;43.80;27.85;;;19.90;99.90;;;;;;5051201;28;20785;-76
2023/09/12 03:37:49;;;;;;;43.37;27.97;;;20.10;98.50;;;;;;5033396;28;20400;-76
2023/09/12 03:40:15;;;;;;;47.70;28.27;;;20.10;99.40;;;;;;5033272;28;20386;-76
2023/09/12 03:42:40;;;;;;;43.08;27.90;;;20.20;97.90;;;;;;5032947;28;20452;-75
2023/09/12 03:45:06;;;;;;;42.37;27.00;;;20.00;99.00;;;;;;5033479;28;20496;-76
2023/09/12 03:47:32;;;;;;;42.80;27.87;;;20.00;99.90;;;;;;5051631;28;20878;-77
2023/09/12 03:49:57;;;;;;;45.33;28.20;;;20.10;97.90;;;;;;5051396;28;20412;-76
2023/09/12 03:52:23;;;;;;;41.92;26.92;;;20.10;97.20;;;;;;5051394;28;20415;-77
2023/09/12 03:54:48;;;;;;;43.73;27.70;;;20.00;99.20;;;;;;5062130;28;20415;-76
2023/09/12 03:57:14;;;;;;;45.45;27.73;;;19.90;99.90;;;;;;5062560;28;20385;-77
2023/09/12 03:59:39;;;;;;;40.10;26.13;;;19.90;99.90;;;;;;5074055;28;20397;-76
2023/09/12 04:02:05;;;;;;;36.33;23.90;;;19.90;99.90;;;;;;5074338;28;20474;-77
2023/09/12 04:04:30;;;;;;;38.20;25.40;;;19.90;99.60;;;;;;5073766;28;20425;-76
2023/09/12 04:06:56;;;;;;;37.33;24.57;;;20.00;96.30;;;;;;5072629;28;20400;-76
2023/09/12 04:09:21;;;;;;;38.55;22.83;;;20.10;93.70;;;;;;5072218;28;20382;-75
2023/09/12 04:11:47;;;;;;;35.90;22.97;;;20.00;93.70;;;;;;5073314;28;20408;-76
2023/09/12 04:14:14;;;;;;;36.90;22.85;;;19.80;96.10;;;;;;5072121;28;20393;-76
2023/09/12 04:16:39;;;;;;;33.50;21.23;;;19.90;95.80;;;;;;5072540;28;20392;-76
2023/09/12 04:19:05;;;;;;;32.23;21.17;;;19.90;93.50;;;;;;5055867;28;20385;-76
2023/09/12 04:21:31;;;;;;;31.45;20.90;;;19.90;94.10;;;;;;5073503;28;20381;-77
2023/09/12 04:23:56;;;;;;;31.97;20.47;;;19.80;96.30;;;;;;5071893;28;20385;-77
2023/09/12 04:26:22;;;;;;;30.07;19.70;;;19.80;95.90;;;;;;5071794;28;20469;-77
2023/09/12 04:28:48;;;;;;;32.75;19.05;;;19.80;95.80;;;;;;5072237;28;20412;-76
2023/09/12 04:31:14;;;;;;;28.77;18.20;;;19.80;94.40;;;;;;5065308;28;20382;-76
2023/09/12 04:33:39;;;;;;;27.50;16.67;;;19.90;91.10;;;;;;5053850;28;20738;-75
2023/09/12 04:36:05;;;;;;;20.87;15.70;;;19.90;89.30;;;;;;5052625;28;20381;-76
2023/09/12 04:38:32;;;;;;;23.40;15.30;;;20.00;86.50;;;;;;5052062;28;20515;-76
2023/09/12 04:41:04;;;;;;;21.93;15.40;;;20.10;84.30;;;;;;5055087;28;20440;-75
2023/09/12 04:43:30;;;;;;;25.65;14.90;;;20.00;83.80;;;;;;5056348;28;20418;-76
2023/09/12 04:45:56;;;;;;;24.05;14.30;;;20.10;82.30;;;;;;5059148;28;20711;-75
2023/09/12 04:48:21;;;;;;;27.60;14.50;;;20.10;82.00;;;;;;5060569;28;20419;-76
2023/09/12 04:50:48;;;;;;;23.35;13.82;;;20.20;81.00;;;;;;5055002;28;20470;-77
2023/09/12 04:53:13;;;;;;;24.35;13.50;;;20.40;77.00;;;;;;5054806;28;20438;-75
2023/09/12 04:55:39;;;;;;;19.30;13.17;;;20.40;76.00;;;;;;5054545;28;20432;-76
2023/09/12 04:58:05;;;;;;;18.00;12.80;;;20.50;74.10;;;;;;5054396;28;20389;-75
2023/09/12 05:00:32;;;;;;;25.60;13.35;;;20.50;74.20;;;;;;5054275;28;20881;-76
2023/09/12 05:02:58;;;;;;;22.70;13.38;;;20.60;72.50;;;;;;5055135;28;20394;-77
2023/09/12 05:05:23;;;;;;;25.55;15.45;;;20.80;71.30;;;;;;5054405;28;20409;-77
2023/09/12 05:07:51;;;;;;;25.70;15.15;;;21.00;71.60;;;;;;5055112;28;20381;-76
2023/09/12 05:10:16;;;;;;;22.63;14.18;;;21.00;67.80;;;;;;5058609;28;20373;-76
2023/09/12 05:12:42;;;;;;;22.42;14.55;;;21.00;67.20;;;;;;5056740;28;20378;-76
2023/09/12 05:15:08;;;;;;;23.60;14.60;;;20.70;70.80;;;;;;5057509;28;20480;-76
2023/09/12 05:17:33;;;;;;;23.33;14.32;;;20.60;74.50;;;;;;5057022;28;20770;-77
2023/09/12 05:19:59;;;;;;;21.30;14.40;;;20.50;77.90;;;;;;5055986;28;20484;-77
2023/09/12 05:22:24;;;;;;;24.37;14.30;;;20.40;73.90;;;;;;5056147;28;20425;-76
2023/09/12 05:24:50;;;;;;;22.70;14.83;;;20.40;76.30;;;;;;5036932;28;20410;-77
2023/09/12 05:27:16;;;;;;;27.88;17.02;;;20.40;79.70;;;;;;5054433;28;20885;-77
2023/09/12 05:29:44;;;;;;;24.50;14.80;;;20.50;80.00;;;;;;5036180;28;20436;-77
2023/09/12 05:32:09;;;;;;;23.33;15.60;;;20.60;78.40;;;;;;5053877;28;20381;-78
2023/09/12 05:34:35;;;;;;;26.48;16.40;;;20.50;78.50;;;;;;5053780;28;20385;-76
2023/09/12 05:37:00;;;;;;;26.37;16.17;;;20.60;78.30;;;;;;5053832;28;20460;-77
2023/09/12 05:39:26;;;;;;;23.20;16.50;;;20.60;76.50;;;;;;5054824;28;20388;-76
2023/09/12 05:41:51;;;;;;;28.05;14.95;;;20.70;74.20;;;;;;5057070;28;20412;-77
2023/09/12 05:44:18;;;;;;;30.80;16.37;;;20.80;69.80;;;;;;5054628;28;20805;-76
2023/09/12 05:46:47;;;;;;;37.63;18.10;;;20.90;70.20;;;;;;5054652;28;20409;-76
2023/09/12 05:49:14;;;;;;;38.45;23.02;;;21.00;71.00;;;;;;5053734;28;20374;-77
2023/09/12 05:51:40;;;;;;;42.63;26.10;;;21.00;77.90;;;;;;5053522;28;20389;-76
2023/09/12 05:54:07;;;;;;;38.58;25.40;;;21.00;79.70;;;;;;5054173;28;20381;-77
2023/09/12 05:56:34;;;;;;;49.28;27.92;;;20.90;82.30;;;;;;5053399;28;20377;-76
2023/09/12 05:58:59;;;;;;;48.38;31.10;;;20.90;84.90;;;;;;5035196;28;20404;-75
2023/09/12 06:01:25;;;;;;;51.40;27.50;;;20.80;87.40;;;;;;5053331;28;20898;-76
2023/09/12 06:03:51;;;;;;;45.65;27.45;;;20.70;89.10;;;;;;5052711;28;20475;-77
2023/09/12 06:06:16;;;;;;;56.27;27.63;;;20.40;99.10;;;;;;5052616;28;20409;-75
2023/09/12 06:08:42;;;;;;;65.57;23.70;;;19.60;99.90;;;;;;5052633;28;20385;-73
2023/09/12 06:11:07;;;;;;;5.32;2.67;;;19.00;99.90;;;;;;5052716;28;20908;-74
2023/09/12 06:13:35;;;;;;;5.07;2.20;;;18.90;1.40;;;;;;5052389;28;20381;-75
2023/09/12 06:16:01;;;;;;;4.72;2.10;;;18.90;1.40;;;;;;5052727;28;20393;-75
2023/09/12 06:18:28;;;;;;;3.95;1.80;;;19.00;1.40;;;;;;5052909;28;20393;-75
2023/09/12 06:20:54;;;;;;;2.13;1.55;;;19.00;1.40;;;;;;5053036;28;20469;-75
2023/09/12 06:23:20;;;;;;;2.00;1.80;;;18.90;1.40;;;;;;5052596;28;20429;-75
2023/09/12 06:25:45;;;;;;;2.40;1.77;;;18.90;1.40;;;;;;5052237;28;20405;-74
2023/09/12 06:28:11;;;;;;;2.40;1.40;;;18.80;1.40;;;;;;5052471;28;20389;-73
2023/09/12 06:30:36;;;;;;;2.20;1.40;;;18.80;1.40;;;;;;5052502;28;20420;-75
2023/09/12 06:33:02;;;;;;;5.45;2.45;;;18.90;1.40;;;;;;5051266;28;20385;-75
2023/09/12 06:35:27;;;;;;;4.10;1.90;;;19.10;1.40;;;;;;5050674;28;20405;-74
2023/09/12 06:37:56;;;;;;;1.43;1.33;;;19.10;1.40;;;;;;5051669;28;20446;-74
2023/09/12 06:40:21;;;;;;;2.50;2.25;;;19.00;1.40;;;;;;5051771;28;20397;-75
2023/09/12 06:42:47;;;;;;;1.10;0.90;;;18.90;1.40;;;;;;5051011;28;20447;-74
2023/09/12 06:45:12;;;;;;;2.55;1.58;;;19.10;1.40;;;;;;5051969;28;20487;-76
2023/09/12 06:47:38;;;;;;;0.80;0.60;;;18.90;1.40;;;;;;5051724;28;20393;-75
2023/09/12 06:50:04;;;;;;;3.40;1.73;;;18.80;1.40;;;;;;5030771;28;20430;-75
2023/09/12 06:52:29;;;;;;;2.05;1.70;;;18.70;1.40;;;;;;5031862;28;20387;-75
2023/09/12 06:54:55;;;;;;;1.60;1.00;;;18.80;1.40;;;;;;5031935;28;20387;-75
2023/09/12 06:57:20;;;;;;;6.80;2.00;;;18.90;1.40;;;;;;5032091;28;20383;-73
2023/09/12 06:59:49;;;;;;;1.10;0.90;;;18.80;1.40;;;;;;5036836;28;20397;-74
2023/09/12 07:02:14;;;;;;;1.50;1.40;;;18.80;1.40;;;;;;5048660;28;20474;-74
2023/09/12 07:04:40;;;;;;;2.93;0.90;;;18.90;1.40;;;;;;5048967;28;20409;-74
2023/09/12 07:07:05;;;;;;;1.60;0.70;;;18.90;1.40;;;;;;5034312;28;20437;-75
2023/09/12 07:09:31;;;;;;;3.00;1.65;;;19.10;1.40;;;;;;5030578;28;20398;-75
2023/09/12 07:11:56;;;;;;;1.20;0.90;;;19.30;1.40;;;;;;5029493;28;20387;-75
2023/09/12 07:14:23;;;;;;;0.90;0.70;;;19.30;1.40;;;;;;5030123;28;20383;-76
2023/09/12 07:16:49;;;;;;;1.20;0.90;;;19.30;1.40;;;;;;5042726;28;20401;-75
2023/09/12 07:19:15;;;;;;;2.47;1.20;;;19.10;1.40;;;;;;5043814;28;20424;-75
2023/09/12 07:21:40;;;;;;;2.07;1.27;;;19.20;1.40;;;;;;5049007;28;20401;-76
2023/09/12 07:24:06;;;;;;;3.00;1.20;;;19.10;1.40;;;;;;5049557;28;20747;-78
2023/09/12 07:26:32;;;;;;;2.17;1.08;;;19.10;1.40;;;;;;5050011;28;20772;-76
2023/09/12 07:28:58;;;;;;;1.40;1.30;;;19.30;1.40;;;;;;5049412;28;20956;-76
2023/09/12 07:31:23;;;;;;;2.70;1.33;;;19.30;1.40;;;;;;5047995;28;20400;-75
2023/09/12 07:33:49;;;;;;;5.17;1.40;;;19.30;1.40;;;;;;5031029;28;20390;-75
2023/09/12 07:36:14;;;;;;;1.50;1.00;;;19.30;1.40;;;;;;5049109;28;20495;-76
2023/09/12 07:38:41;;;;;;;1.50;0.70;;;19.40;1.40;;;;;;5049876;28;20443;-77
2023/09/12 07:41:08;;;;;;;2.50;1.00;;;19.20;1.40;;;;;;5052943;28;20432;-76
2023/09/12 07:43:33;;;;;;;1.20;0.80;;;19.20;1.40;;;;;;5050515;28;20479;-77
2023/09/12 07:45:59;;;;;;;1.50;1.03;;;19.30;1.40;;;;;;5049671;28;21017;-78
2023/09/12 07:48:24;;;;;;;0.90;0.80;;;19.50;1.40;;;;;;5052392;28;20386;-78
2023/09/12 07:50:51;;;;;;;1.95;0.88;;;19.50;1.40;;;;;;5051590;28;21219;-77
2023/09/12 07:53:17;;;;;;;2.30;2.00;;;19.50;1.40;;;;;;5054502;28;20454;-77
2023/09/12 07:55:46;;;;;;;1.60;0.90;;;19.30;1.40;;;;;;5050985;28;20397;-77
2023/09/12 07:58:13;;;;;;;2.47;0.90;;;19.40;1.40;;;;;;5034535;28;20419;-77
2023/09/12 08:00:39;;;;;;;2.30;1.23;;;19.60;1.40;;;;;;5054192;28;20405;-78
2023/09/12 08:03:04;;;;;;;2.30;1.50;;;19.60;1.40;;;;;;5054883;28;20409;-77
2023/09/12 08:05:30;;;;;;;0.93;0.60;;;19.40;1.40;;;;;;5050984;28;20440;-77
2023/09/12 08:07:55;;;;;;;2.20;2.00;;;19.50;1.40;;;;;;5034066;28;20401;-78
2023/09/12 08:10:21;;;;;;;0.90;0.80;;;19.70;1.40;;;;;;5061392;28;20393;-77
2023/09/12 08:12:46;;;;;;;0.88;0.70;;;19.70;1.40;;;;;;5048649;28;20451;-76
2023/09/12 08:15:12;;;;;;;1.33;1.23;;;19.50;1.40;;;;;;5042009;28;20402;-77
2023/09/12 08:17:39;;;;;;;0.80;0.60;;;19.30;1.40;;;;;;5063341;28;20365;-76
2023/09/12 08:20:06;;;;;;;0.80;0.50;;;19.20;1.40;;;;;;5047714;28;20390;-76
2023/09/12 08:22:31;;;;;;;2.20;0.60;;;19.30;1.40;;;;;;5053880;28;20417;-78
2023/09/12 08:24:57;;;;;;;0.93;0.83;;;19.40;1.40;;;;;;5051748;28;20460;-78
2023/09/12 08:27:23;;;;;;;0.80;0.50;;;19.30;1.40;;;;;;5053909;28;20397;-77
2023/09/12 08:29:49;;;;;;;1.40;0.50;;;19.30;1.40;;;;;;5064005;28;20373;-75
2023/09/12 08:32:14;;;;;;;1.00;0.90;;;19.40;1.40;;;;;;5065750;28;20969;-76
2023/09/12 08:34:40;;;;;;;1.85;0.70;;;19.40;1.40;;;;;;5041429;28;20858;-77
2023/09/12 08:37:05;;;;;;;1.00;0.57;;;19.60;1.40;;;;;;5031619;28;20455;-77
2023/09/12 08:39:45;;;;;;;1.77;0.85;;;19.70;1.40;;;;;;5032025;28;20383;-78
2023/09/12 08:42:13;;;;;;;0.80;0.70;;;19.80;1.40;;;;;;5046521;28;20435;-78
2023/09/12 08:44:40;;;;;;;1.00;0.60;;;19.90;1.40;;;;;;5055602;28;20386;-77
2023/09/12 08:47:09;;;;;;;0.80;0.60;;;20.00;1.40;;;;;;5055288;28;20930;-78
2023/09/12 08:49:36;;;;;;;0.90;0.75;;;20.10;1.40;;;;;;5055647;28;20381;-77
2023/09/12 08:52:02;;;;;;;1.63;0.88;;;20.10;1.40;;;;;;5054857;28;20402;-79
2023/09/12 08:54:28;;;;;;;1.50;0.80;;;20.00;1.40;;;;;;5054006;28;20386;-77
2023/09/12 08:56:54;;;;;;;1.00;0.80;;;19.90;1.40;;;;;;5057819;28;20393;-78
2023/09/12 08:59:20;;;;;;;2.40;1.00;;;19.80;1.40;;;;;;5057038;28;20851;-77
2023/09/12 09:01:46;;;;;;;2.90;1.00;;;19.90;1.40;;;;;;5038947;28;20393;-79
2023/09/12 09:04:12;;;;;;;2.20;1.20;;;19.80;1.40;;;;;;5056147;28;20476;-78
2023/09/12 09:06:41;;;;;;;1.50;0.80;;;19.90;1.40;;;;;;5033545;28;20430;-77
2023/09/12 09:09:08;;;;;;;1.77;0.70;;;20.00;1.40;;;;;;5061105;28;20392;-79
2023/09/12 09:11:34;;;;;;;0.90;0.70;;;20.00;1.40;;;;;;5057826;28;20378;-78
2023/09/12 09:14:03;;;;;;;0.80;0.52;;;20.10;1.40;;;;;;5059178;28;20374;-77
2023/09/12 09:16:29;;;;;;;1.20;0.50;;;20.20;1.40;;;;;;5060807;28;20401;-78
2023/09/12 09:18:57;;;;;;;0.95;0.55;;;19.70;99.90;;;;;;5046421;28;20409;-77
2023/09/12 09:21:31;;;;;;;1.80;0.75;;;20.00;99.90;;;;;;5037561;28;20484;-80
2023/09/12 09:24:10;;;;;;;1.05;0.60;;;20.30;99.90;;;;;;5058072;28;20385;-76
2023/09/12 09:26:47;;;;;;;0.80;0.50;;;20.40;99.90;;;;;;5061478;28;20401;-78
2023/09/12 09:29:15;;;;;;;0.80;0.50;;;20.60;99.90;;;;;;5059831;28;20743;-77
2023/09/12 09:31:42;;;;;;;0.90;0.60;;;20.30;99.90;;;;;;5056695;28;20378;-78
2023/09/12 09:34:15;;;;;;;0.80;0.50;;;20.30;99.90;;;;;;5060911;28;20394;-77
2023/09/12 09:36:42;;;;;;;0.80;0.50;;;20.50;99.90;;;;;;5059943;28;20470;-78
2023/09/12 09:39:09;;;;;;;0.80;0.50;;;20.50;99.90;;;;;;5060470;28;20427;-78
2023/09/12 09:41:34;;;;;;;0.80;0.50;;;20.50;87.30;;;;;;5062753;28;20770;-78
2023/09/12 09:44:00;;;;;;;0.80;0.50;;;20.70;79.30;;;;;;5066856;28;20390;-78
2023/09/12 09:46:26;;;;;;;1.50;0.70;;;20.90;87.90;;;;;;5059059;28;20844;-77
2023/09/12 09:48:52;;;;;;;0.90;0.70;;;21.20;86.30;;;;;;5036067;28;20476;-78
2023/09/12 09:51:18;;;;;;;0.80;0.70;;;21.40;89.90;;;;;;5053506;28;20509;-77
2023/09/12 09:53:44;;;;;;;0.80;0.50;;;21.40;73.30;;;;;;5054049;28;20377;-78
2023/09/12 09:56:12;;;;;;;1.20;0.70;;;21.60;79.20;;;;;;5061340;28;20424;-78
2023/09/12 09:58:51;;;;;;;0.90;0.60;;;21.70;79.80;;;;;;5061235;28;20417;-78
2023/09/12 10:01:22;;;;;;;1.80;0.70;;;21.80;77.90;;;;;;5061400;28;20382;-77
2023/09/12 10:03:49;;;;;;;1.30;0.80;;;21.90;70.20;;;;;;5060689;28;20916;-78
2023/09/12 10:06:19;;;;;;;1.10;0.60;;;22.20;73.80;;;;;;5061007;28;20459;-78
2023/09/12 10:08:51;;;;;;;0.80;0.50;;;22.40;76.70;;;;;;5061906;28;20377;-78
2023/09/12 10:11:18;;;;;;;0.80;0.50;;;22.60;71.20;;;;;;5063425;28;20388;-78
2023/09/12 10:13:53;;;;;;;0.80;0.60;;;22.70;72.00;;;;;;5068870;28;20382;-77
2023/09/12 10:16:23;;;;;;;1.10;0.80;;;22.80;64.10;;;;;;5047842;28;20386;-77
2023/09/12 10:18:58;;;;;;;0.90;0.63;;;22.80;63.00;;;;;;5044248;28;20766;-78
2023/09/12 10:21:31;;;;;;;1.00;0.60;;;22.90;63.30;;;;;;5060897;28;20434;-78
2023/09/12 10:23:58;;;;;;;0.90;0.50;;;22.70;52.80;;;;;;5060528;28;20404;-77
2023/09/12 10:26:24;;;;;;;1.00;0.50;;;22.80;57.20;;;;;;5064769;28;20460;-77
2023/09/12 10:28:51;;;;;;;1.00;0.70;;;22.90;57.00;;;;;;5047261;28;20414;-78
2023/09/12 10:31:17;;;;;;;0.90;0.60;;;22.90;50.90;;;;;;5064938;28;20894;-78
2023/09/12 10:33:44;;;;;;;0.80;0.50;;;23.10;54.70;;;;;;5066563;28;20389;-78
2023/09/12 10:36:12;;;;;;;0.80;0.50;;;23.30;53.10;;;;;;5068966;28;20397;-77
2023/09/12 10:38:48;;;;;;;0.90;0.60;;;23.50;47.80;;;;;;5064024;28;20464;-78
2023/09/12 10:41:15;;;;;;;0.90;0.50;;;23.80;49.70;;;;;;5059557;28;20392;-79
2023/09/12 10:43:42;;;;;;;0.90;0.60;;;23.80;44.30;;;;;;5060649;28;20394;-79
2023/09/12 10:46:09;;;;;;;2.30;1.00;;;24.00;46.10;;;;;;5059328;28;20405;-78
2023/09/12 10:48:36;;;;;;;0.80;0.50;;;24.30;43.30;;;;;;5059800;28;20386;-78
2023/09/12 10:51:06;;;;;;;1.10;0.65;;;24.20;38.80;;;;;;5059739;28;20385;-78
2023/09/12 10:53:33;;;;;;;1.20;0.60;;;24.10;40.20;;;;;;5060313;28;20408;-79
2023/09/12 10:56:19;;;;;;;1.73;0.85;;;24.10;39.70;;;;;;5058980;28;20393;-78
2023/09/12 10:59:12;;;;;;;1.00;0.50;;;24.20;40.90;;;;;;5059126;28;20850;-78
2023/09/12 11:01:48;;;;;;;0.80;0.50;;;24.20;41.60;;;;;;5040693;28;20394;-79
2023/09/12 11:04:19;;;;;;;3.90;1.20;;;24.10;41.90;;;;;;5061577;28;20797;-78
2023/09/12 11:06:50;;;;;;;0.85;0.52;;;24.30;40.00;;;;;;5063615;28;20401;-76
2023/09/12 11:09:22;;;;;;;1.73;1.00;;;24.40;41.00;;;;;;5065196;28;20386;-77
2023/09/12 11:11:54;;;;;;;1.00;0.70;;;24.50;38.60;;;;;;5066755;28;20385;-77
2023/09/12 11:14:20;;;;;;;1.50;0.82;;;24.60;38.40;;;;;;5045479;28;20405;-78
2023/09/12 11:17:21;;;;;;;3.10;1.60;;;24.70;39.50;;;;;;5064371;28;20878;-77
2023/09/12 11:19:51;;;;;;;3.10;0.90;;;25.00;39.20;;;;;;5063850;28;20435;-77
2023/09/12 11:22:26;;;;;;;1.10;0.60;;;25.40;37.00;;;;;;5064245;28;20440;-77
2023/09/12 11:24:52;;;;;;;1.10;0.80;;;25.40;35.60;;;;;;5064017;28;20386;-78
2023/09/12 11:27:17;;;;;;;19.40;1.13;;;25.40;35.80;;;;;;5060148;28;20392;-79
2023/09/12 11:29:43;;;;;;;1.10;0.80;;;25.40;35.30;;;;;;5058471;28;20381;-79
2023/09/12 11:32:09;;;;;;;16.93;1.60;;;25.40;35.00;;;;;;5057968;28;20750;-79
2023/09/12 11:34:42;;;;;;;1.48;1.20;;;25.40;35.70;;;;;;5058330;28;20385;-78
2023/09/12 11:37:09;;;;;;;1.37;0.87;;;25.40;35.80;;;;;;5058436;28;20381;-78
2023/09/12 11:39:36;;;;;;;2.20;1.80;;;25.30;35.80;;;;;;5041416;28;20381;-79
2023/09/12 11:42:04;;;;;;;2.45;1.30;;;25.10;36.70;;;;;;5064888;28;20794;-77
2023/09/12 11:44:31;;;;;;;4.30;1.17;;;25.00;37.20;;;;;;5049717;28;20392;-77
2023/09/12 11:47:06;;;;;;;1.10;0.70;;;24.80;36.40;;;;;;5044815;28;20409;-79
2023/09/12 11:49:41;;;;;;;2.00;0.98;;;24.90;37.70;;;;;;5057488;28;20385;-79
2023/09/12 11:52:16;;;;;;;8.00;5.60;;;25.10;35.80;;;;;;5056829;28;20470;-79
2023/09/12 11:54:43;;;;;;;6.23;5.37;;;25.20;35.10;;;;;;5057435;28;20866;-80
2023/09/12 11:57:10;;;;;;;12.07;7.07;;;25.40;33.80;;;;;;5058026;28;20459;-80
2023/09/12 11:59:51;;;;;;;10.27;7.50;;;25.40;32.70;;;;;;5058373;28;20382;-76
2023/09/12 12:02:18;;;;;;;11.97;7.80;;;25.30;33.40;;;;;;5056550;28;20389;-79
2023/09/12 12:04:44;;;;;;;10.20;8.27;;;25.30;34.60;;;;;;5056318;28;20440;-79
2023/09/12 12:07:10;;;;;;;10.10;6.80;;;25.40;34.50;;;;;;5057435;28;20390;-77
2023/09/12 12:09:36;;;;;;;6.17;5.40;;;25.60;33.70;;;;;;5057421;28;20901;-79
2023/09/12 12:12:12;;;;;;;6.72;5.75;;;25.90;32.90;;;;;;5056236;28;20382;-79
2023/09/12 12:14:40;;;;;;;6.40;5.40;;;26.10;30.70;;;;;;5057012;28;20378;-78
2023/09/12 12:17:15;;;;;;;9.60;5.10;;;26.20;30.20;;;;;;5057371;28;20413;-78
2023/09/12 12:19:45;;;;;;;7.55;5.80;;;26.10;28.90;;;;;;5040681;28;20389;-79
2023/09/12 12:22:11;;;;;;;5.55;5.05;;;26.30;29.00;;;;;;5039909;28;20385;-80
2023/09/12 12:24:45;;;;;;;6.77;6.07;;;26.60;29.80;;;;;;5059036;28;20743;-79
2023/09/12 12:27:11;;;;;;;8.13;5.30;;;27.10;28.00;;;;;;5058090;28;20397;-79
2023/09/12 12:29:39;;;;;;;7.72;5.18;;;27.50;26.90;;;;;;5059502;28;20373;-79
2023/09/12 12:32:05;;;;;;;5.32;4.70;;;28.00;24.00;;;;;;5057384;28;20381;-79
2023/09/12 12:34:31;;;;;;;8.98;5.78;;;28.20;23.70;;;;;;5058447;28;20381;-76
2023/09/12 12:36:57;;;;;;;9.90;6.07;;;27.90;22.60;;;;;;5057284;28;20437;-81
2023/09/12 12:39:23;;;;;;;11.15;6.57;;;27.20;25.10;;;;;;5058392;28;20381;-79
2023/09/12 12:41:52;;;;;;;11.73;7.75;;;27.00;26.90;;;;;;5056649;28;20427;-78